Terminal Aerodrome Forecast
Issued by NWS

Home | Current Version | Previous Version | Text Only | Print | Product List | Glossary On
Versions: 1 2 3 4 5 6 7 8 9 10 11 12
000
FTUS45 KSLC 301720
TAFEVW
TAF
KEVW 301720Z 3018/3118 23010KT P6SM FEW080 SCT150
     FM301900 26012G19KT P6SM SCT080 BKN150
     FM302100 26012G20KT P6SM VCSH SCT080 BKN150
     FM310400 20007KT P6SM SCT150=

USA.gov is the U.S. government's official web portal to all federal, state and local government web resources and services.